createdAt,value
2022-10-13T00:01:24.566Z,19.47
2022-10-13T00:03:53.760Z,16.90
2022-10-13T00:06:22.228Z,19.70
2022-10-13T00:08:50.111Z,19.77
2022-10-13T00:11:18.295Z,18.80
2022-10-13T00:13:46.338Z,20.77
2022-10-13T00:16:15.168Z,21.95
2022-10-13T00:18:42.648Z,22.13
2022-10-13T00:21:12.248Z,22.08
2022-10-13T00:23:39.900Z,23.10
2022-10-13T00:26:08.968Z,23.43
2022-10-13T00:28:36.430Z,24.52
2022-10-13T00:31:03.967Z,23.20
2022-10-13T00:33:31.295Z,25.40
2022-10-13T00:35:58.651Z,24.77
2022-10-13T00:38:27.660Z,27.73
2022-10-13T00:40:56.134Z,23.40
2022-10-13T00:43:24.241Z,26.40
2022-10-13T00:45:51.838Z,29.75
2022-10-13T00:48:20.091Z,27.45
2022-10-13T00:50:47.859Z,30.27
2022-10-13T00:53:15.807Z,29.58
2022-10-13T00:55:45.707Z,26.13
2022-10-13T00:58:15.990Z,22.75
2022-10-13T01:00:44.265Z,25.23
2022-10-13T01:03:12.208Z,26.83
2022-10-13T01:05:39.983Z,28.23
2022-10-13T01:08:07.444Z,24.20
2022-10-13T01:10:37.160Z,27.65
2022-10-13T01:13:13.079Z,27.77
2022-10-13T01:15:42.953Z,29.33
2022-10-13T01:18:14.923Z,24.85
2022-10-13T01:21:03.019Z,28.38
2022-10-13T01:23:37.303Z,24.65
2022-10-13T01:26:18.636Z,27.83
2022-10-13T01:28:58.508Z,25.23
2022-10-13T01:31:28.902Z,25.67
2022-10-13T01:33:58.203Z,23.77
2022-10-13T01:36:28.367Z,25.20
2022-10-13T01:38:57.874Z,27.27
2022-10-13T01:41:28.155Z,26.73
2022-10-13T01:43:58.732Z,26.55
2022-10-13T01:46:28.827Z,28.02
2022-10-13T01:48:57.127Z,25.50
2022-10-13T01:51:26.107Z,27.23
2022-10-13T01:53:53.485Z,28.00
2022-10-13T01:56:21.048Z,27.70
2022-10-13T01:58:49.772Z,30.08
2022-10-13T02:01:22.811Z,28.52
2022-10-13T02:03:56.397Z,26.17
2022-10-13T02:06:25.746Z,26.07
2022-10-13T02:08:57.496Z,29.35
2022-10-13T02:11:25.033Z,28.45
2022-10-13T02:13:55.503Z,28.15
2022-10-13T02:16:23.886Z,30.38
2022-10-13T02:18:51.526Z,31.70
2022-10-13T02:21:20.567Z,27.17
2022-10-13T02:23:47.906Z,28.10
2022-10-13T02:26:15.415Z,28.23
2022-10-13T02:28:42.999Z,26.90
2022-10-13T02:31:10.480Z,27.27
2022-10-13T02:33:38.178Z,28.98
2022-10-13T02:36:06.108Z,32.25
2022-10-13T02:38:34.810Z,29.75
2022-10-13T02:41:02.783Z,31.83
2022-10-13T02:43:30.475Z,35.67
2022-10-13T02:45:57.805Z,33.90
2022-10-13T02:48:25.165Z,31.90
2022-10-13T02:50:52.512Z,41.95
2022-10-13T02:53:19.868Z,29.70
2022-10-13T02:55:48.781Z,30.50
2022-10-13T02:58:16.142Z,34.83
2022-10-13T03:00:43.625Z,29.30
2022-10-13T03:03:12.635Z,28.75
2022-10-13T03:05:40.243Z,27.27
2022-10-13T03:08:07.856Z,27.50
2022-10-13T03:10:35.171Z,26.95
2022-10-13T03:13:04.031Z,27.88
2022-10-13T03:15:31.366Z,28.10
2022-10-13T03:17:58.687Z,30.52
2022-10-13T03:20:26.071Z,30.67
2022-10-13T03:22:53.491Z,27.23
2022-10-13T03:25:20.863Z,26.42
2022-10-13T03:27:48.275Z,26.15
2022-10-13T03:30:17.048Z,29.25
2022-10-13T03:32:44.439Z,29.70
2022-10-13T03:35:11.802Z,31.80
2022-10-13T03:37:39.253Z,27.08
2022-10-13T03:40:07.185Z,30.63
2022-10-13T03:42:36.144Z,26.92
2022-10-13T03:45:04.282Z,24.97
2022-10-13T03:47:32.947Z,30.55
2022-10-13T03:50:00.318Z,29.95
2022-10-13T03:52:27.641Z,30.27
2022-10-13T03:54:55.141Z,27.35
2022-10-13T03:57:22.479Z,25.90
2022-10-13T03:59:49.795Z,31.95
2022-10-13T04:02:17.333Z,30.05
2022-10-13T04:04:46.188Z,30.48
2022-10-13T04:07:13.544Z,27.77
2022-10-13T04:09:40.895Z,31.50
2022-10-13T04:12:08.502Z,33.70
2022-10-13T04:14:35.944Z,29.00
2022-10-13T04:17:03.346Z,28.27
2022-10-13T04:19:30.708Z,30.63
2022-10-13T04:21:59.400Z,31.43
2022-10-13T04:24:27.127Z,32.70
2022-10-13T04:26:54.563Z,29.42
2022-10-13T04:29:21.899Z,31.67
2022-10-13T04:31:49.250Z,28.48
2022-10-13T04:34:16.592Z,29.50
2022-10-13T04:36:43.913Z,26.85
2022-10-13T04:39:12.602Z,30.52
2022-10-13T04:41:39.937Z,28.45
2022-10-13T04:44:07.261Z,26.67
2022-10-13T04:46:34.629Z,32.70
2022-10-13T04:49:02.522Z,27.67
2022-10-13T04:51:29.919Z,27.65
2022-10-13T04:53:57.987Z,29.92
2022-10-13T04:56:27.004Z,29.77
2022-10-13T04:58:54.347Z,29.40
2022-10-13T05:01:22.711Z,28.50
2022-10-13T05:03:51.495Z,29.77
2022-10-13T05:06:19.975Z,29.48
2022-10-13T05:08:47.334Z,28.55
2022-10-13T05:11:14.697Z,29.00
2022-10-13T05:13:43.497Z,30.42
2022-10-13T05:16:11.467Z,28.73
2022-10-13T05:18:38.799Z,26.92
2022-10-13T05:21:09.505Z,26.67
2022-10-13T05:23:37.063Z,27.37
2022-10-13T05:26:05.383Z,30.00
2022-10-13T05:28:33.069Z,27.35
2022-10-13T05:31:10.622Z,31.08
2022-10-13T05:33:38.491Z,29.38
2022-10-13T05:36:06.855Z,29.40
2022-10-13T05:38:34.544Z,29.65
2022-10-13T05:41:05.573Z,29.80
2022-10-13T05:43:33.082Z,27.52
2022-10-13T05:46:00.691Z,30.33
2022-10-13T05:48:29.778Z,30.47
2022-10-13T05:50:58.639Z,24.65
2022-10-13T05:53:26.860Z,27.65
2022-10-13T05:55:55.751Z,28.50
2022-10-13T05:58:23.328Z,30.48
2022-10-13T06:00:50.822Z,28.87
2022-10-13T06:03:20.276Z,25.67
2022-10-13T06:05:49.146Z,26.75
2022-10-13T06:08:16.684Z,25.00
2022-10-13T06:10:44.418Z,28.20
2022-10-13T06:13:11.936Z,25.50
2022-10-13T06:15:39.291Z,24.95
2022-10-13T06:18:08.450Z,29.35
2022-10-13T06:20:35.897Z,25.92
2022-10-13T06:23:04.605Z,31.50
2022-10-13T06:25:32.072Z,25.93
2022-10-13T06:28:00.427Z,28.55
2022-10-13T06:30:28.078Z,26.67
2022-10-13T06:32:55.944Z,24.80
2022-10-13T06:35:23.371Z,30.15
2022-10-13T06:37:50.743Z,25.60
2022-10-13T06:40:19.532Z,27.27
2022-10-13T06:42:50.312Z,26.27
2022-10-13T06:45:17.892Z,25.33
2022-10-13T06:47:45.206Z,28.02
2022-10-13T06:50:12.918Z,25.07
2022-10-13T06:52:40.330Z,28.15
2022-10-13T06:55:07.924Z,23.40
2022-10-13T06:57:36.637Z,24.05
2022-10-13T07:00:05.133Z,25.17
2022-10-13T07:02:59.812Z,26.27
2022-10-13T07:05:27.172Z,23.33
2022-10-13T07:07:54.761Z,23.27
2022-10-13T07:10:22.312Z,22.45
2022-10-13T07:12:51.073Z,23.05
2022-10-13T07:15:18.452Z,22.83
2022-10-13T07:17:45.813Z,25.30
2022-10-13T07:20:13.194Z,21.17
2022-10-13T07:22:40.535Z,22.70
2022-10-13T07:25:08.529Z,23.15
2022-10-13T07:27:38.138Z,22.00
2022-10-13T07:30:07.955Z,21.45
2022-10-13T07:32:35.753Z,20.88
2022-10-13T07:35:03.176Z,22.45
2022-10-13T07:37:30.508Z,23.48
2022-10-13T07:40:00.492Z,21.23
2022-10-13T07:42:27.991Z,21.85
2022-10-13T07:44:55.326Z,18.90
2022-10-13T07:47:24.071Z,21.27
2022-10-13T07:49:51.428Z,20.42
2022-10-13T07:52:19.118Z,19.43
2022-10-13T07:54:46.635Z,17.77
2022-10-13T07:57:15.148Z,17.23
2022-10-13T07:59:42.624Z,16.83
2022-10-13T08:02:09.985Z,17.45
2022-10-13T08:04:39.011Z,17.73
2022-10-13T08:07:06.708Z,16.45
2022-10-13T08:09:34.077Z,18.83
2022-10-13T08:12:02.071Z,18.83
2022-10-13T08:14:29.856Z,23.67
2022-10-13T08:16:57.384Z,15.83
2022-10-13T08:19:26.388Z,19.10
2022-10-13T08:21:59.731Z,19.70
2022-10-13T08:24:28.006Z,16.60
2022-10-13T08:26:55.383Z,18.27
2022-10-13T08:29:24.188Z,17.13
2022-10-13T08:31:52.447Z,17.00
2022-10-13T08:34:20.239Z,16.70
2022-10-13T08:36:47.624Z,16.90
2022-10-13T08:39:16.289Z,18.08
2022-10-13T08:41:44.830Z,15.17
2022-10-13T08:47:07.947Z,18.35
2022-10-13T08:49:36.365Z,16.25
2022-10-13T08:52:04.335Z,14.10
2022-10-13T08:54:33.812Z,14.63
2022-10-13T08:59:33.603Z,16.33
2022-10-13T09:02:01.845Z,14.93
2022-10-13T09:04:30.784Z,16.08
2022-10-13T09:07:02.894Z,16.97
2022-10-13T09:09:30.235Z,15.48
2022-10-13T09:11:59.203Z,16.48
2022-10-13T09:14:28.115Z,18.65
2022-10-13T09:16:56.520Z,17.00
2022-10-13T09:19:25.766Z,17.80
2022-10-13T09:21:54.774Z,17.55
2022-10-13T09:24:23.184Z,18.98
2022-10-13T09:26:52.465Z,17.70
2022-10-13T09:29:25.063Z,20.38
2022-10-13T09:31:53.029Z,23.03
2022-10-13T09:34:25.050Z,21.83
2022-10-13T09:36:59.420Z,21.45
2022-10-13T09:39:27.471Z,19.15
2022-10-13T09:42:09.821Z,19.77
2022-10-13T09:44:38.553Z,19.40
2022-10-13T09:47:06.012Z,25.02
2022-10-13T09:49:35.919Z,21.48
2022-10-13T09:52:04.303Z,21.13
2022-10-13T09:54:38.424Z,22.90
2022-10-13T09:57:08.511Z,22.73
2022-10-13T09:59:37.639Z,20.33
2022-10-13T10:02:19.492Z,23.02
2022-10-13T10:04:49.554Z,20.20
2022-10-13T10:07:20.634Z,20.20
2022-10-13T10:09:50.061Z,23.67
2022-10-13T10:12:20.295Z,20.27
2022-10-13T10:14:50.346Z,20.33
2022-10-13T10:17:22.412Z,22.48
2022-10-13T10:19:54.283Z,19.35
2022-10-13T10:22:26.179Z,22.77
2022-10-13T10:24:56.306Z,24.08
2022-10-13T10:27:27.421Z,21.17
2022-10-13T10:29:58.320Z,20.80
2022-10-13T10:32:32.711Z,19.27
2022-10-13T10:35:03.111Z,22.30
2022-10-13T10:37:39.316Z,20.95
2022-10-13T10:40:13.757Z,19.88
2022-10-13T10:42:52.103Z,18.55
2022-10-13T10:45:21.421Z,20.27
2022-10-13T10:47:52.304Z,18.60
2022-10-13T10:50:20.795Z,21.23
2022-10-13T10:52:51.288Z,21.98
2022-10-13T10:55:20.949Z,21.88
2022-10-13T10:57:54.033Z,23.58
2022-10-13T11:00:22.332Z,20.27
2022-10-13T11:02:56.647Z,21.48
2022-10-13T11:05:24.103Z,24.42
2022-10-13T11:07:59.006Z,22.77
2022-10-13T11:10:27.254Z,20.40
2022-10-13T11:13:12.308Z,22.83
2022-10-13T11:15:43.679Z,21.52
2022-10-13T11:18:29.723Z,22.70
2022-10-13T11:21:01.574Z,21.80
2022-10-13T11:23:32.635Z,21.73
2022-10-13T11:26:18.482Z,21.50
2022-10-13T11:28:46.338Z,21.30
2022-10-13T11:31:33.708Z,20.75
2022-10-13T11:34:03.434Z,20.00
2022-10-13T11:36:43.872Z,19.00
2022-10-13T11:39:27.848Z,20.50
2022-10-13T11:41:58.133Z,18.73
2022-10-13T11:44:29.718Z,18.33
2022-10-13T11:47:01.146Z,20.20
2022-10-13T11:49:38.144Z,18.90
2022-10-13T11:52:13.302Z,18.30
2022-10-13T11:54:42.471Z,21.00
2022-10-13T11:57:18.969Z,20.90
2022-10-13T11:59:47.398Z,20.90
2022-10-13T12:02:18.893Z,20.77
2022-10-13T12:04:59.772Z,20.97
2022-10-13T12:07:30.506Z,23.02
2022-10-13T12:09:58.635Z,22.67
2022-10-13T12:12:26.281Z,21.60
2022-10-13T12:14:54.810Z,21.15
2022-10-13T12:17:24.134Z,20.33
2022-10-13T12:19:53.217Z,20.23
2022-10-13T12:22:21.084Z,21.35
2022-10-13T12:24:59.440Z,22.20
2022-10-13T12:27:27.406Z,25.75
2022-10-13T12:29:54.944Z,23.97
2022-10-13T12:32:22.947Z,25.25
2022-10-13T12:34:50.377Z,24.05
2022-10-13T12:37:22.496Z,25.98
2022-10-13T12:39:50.585Z,24.45
2022-10-13T12:42:19.465Z,23.20
2022-10-13T12:44:47.293Z,26.83
2022-10-13T12:47:29.537Z,21.98
2022-10-13T12:50:11.796Z,23.77
2022-10-13T12:52:39.267Z,24.30
2022-10-13T12:55:13.447Z,25.87
2022-10-13T12:57:42.386Z,28.80
2022-10-13T13:00:22.008Z,18.38
2022-10-13T13:02:52.058Z,11.95
2022-10-13T13:05:32.558Z,11.40
2022-10-13T13:08:00.462Z,8.10
2022-10-13T13:10:28.276Z,9.05
2022-10-13T13:12:57.068Z,11.27
2022-10-13T13:15:32.725Z,8.43
2022-10-13T13:18:14.947Z,5.95
2022-10-13T13:20:42.363Z,5.87
2022-10-13T13:23:09.700Z,5.63
2022-10-13T13:25:37.407Z,5.63
2022-10-13T13:28:11.089Z,5.45
2022-10-13T13:30:38.457Z,4.70
2022-10-13T13:33:05.879Z,4.57
2022-10-13T13:35:33.644Z,4.90
2022-10-13T13:38:01.146Z,5.82
2022-10-13T13:40:28.914Z,5.55
2022-10-13T13:42:56.298Z,5.93
2022-10-13T13:45:25.358Z,6.97
2022-10-13T13:47:54.932Z,6.32
2022-10-13T13:50:26.266Z,4.90
2022-10-13T13:52:53.593Z,4.85
2022-10-13T13:55:21.012Z,4.60
2022-10-13T13:57:48.342Z,5.33
2022-10-13T14:00:16.475Z,5.18
2022-10-13T14:02:45.964Z,3.88
2022-10-13T14:05:13.551Z,5.20
2022-10-13T14:07:41.064Z,4.28
2022-10-13T14:10:09.486Z,3.17
2022-10-13T14:12:37.010Z,5.13
2022-10-13T14:15:04.562Z,5.40
2022-10-13T14:17:32.406Z,3.53
2022-10-13T14:20:01.146Z,3.30
2022-10-13T14:22:28.504Z,4.43
2022-10-13T14:24:55.864Z,3.80
2022-10-13T14:27:23.209Z,4.07
2022-10-13T14:29:50.557Z,4.15
2022-10-13T14:32:18.313Z,3.45
2022-10-13T14:34:45.895Z,4.47
2022-10-13T14:37:14.676Z,4.32
2022-10-13T14:39:42.000Z,3.72
2022-10-13T14:42:09.360Z,3.85
2022-10-13T14:44:36.928Z,3.75
2022-10-13T14:47:04.287Z,4.27
2022-10-13T14:49:31.891Z,4.63
2022-10-13T14:51:59.256Z,4.05
2022-10-13T14:54:28.042Z,5.40
2022-10-13T14:56:55.413Z,4.68
2022-10-13T14:59:22.748Z,4.00
2022-10-13T15:01:50.471Z,5.72
2022-10-13T15:04:17.798Z,5.13
2022-10-13T15:06:45.164Z,3.75
2022-10-13T15:09:12.893Z,4.60
2022-10-13T15:11:41.614Z,4.13
2022-10-13T15:14:09.752Z,4.00
2022-10-13T15:16:37.863Z,4.00
2022-10-13T15:19:05.331Z,3.72
2022-10-13T15:21:32.657Z,4.82
2022-10-13T15:24:01.332Z,3.80
2022-10-13T15:26:28.684Z,4.32
2022-10-13T15:28:57.418Z,4.03
2022-10-13T15:31:24.826Z,3.80
2022-10-13T15:33:53.063Z,4.30
2022-10-13T15:36:21.056Z,4.27
2022-10-13T15:38:48.455Z,4.63
2022-10-13T15:41:16.011Z,3.92
2022-10-13T15:43:43.715Z,4.07
2022-10-13T15:46:20.765Z,6.43
2022-10-13T15:48:48.248Z,4.50
2022-10-13T15:51:16.443Z,4.18
2022-10-13T15:53:43.833Z,4.38
2022-10-13T15:56:11.240Z,4.57
2022-10-13T15:58:38.791Z,5.43
2022-10-13T16:01:08.037Z,4.60
2022-10-13T16:03:36.893Z,4.78
2022-10-13T16:06:04.816Z,4.07
2022-10-13T16:08:32.240Z,3.85
2022-10-13T16:10:59.573Z,5.13
2022-10-13T16:13:26.929Z,4.10
2022-10-13T16:15:57.888Z,4.65
2022-10-13T16:18:28.898Z,4.20
2022-10-13T16:20:57.613Z,4.05
2022-10-13T16:23:25.002Z,4.15
2022-10-13T16:25:52.438Z,4.63
2022-10-13T16:28:19.847Z,5.28
2022-10-13T16:30:47.434Z,5.32
2022-10-13T16:33:14.766Z,4.53
2022-10-13T16:35:42.132Z,4.30
2022-10-13T16:38:11.430Z,5.00
2022-10-13T16:40:38.935Z,4.38
2022-10-13T16:43:06.456Z,5.18
2022-10-13T16:45:55.202Z,4.72
2022-10-13T16:48:21.451Z,5.53
2022-10-13T16:50:48.794Z,4.90
2022-10-13T16:53:17.863Z,5.70
2022-10-13T16:55:45.527Z,4.65
2022-10-13T16:58:13.244Z,4.35
2022-10-13T17:00:40.801Z,5.45
2022-10-13T17:03:08.298Z,5.60
2022-10-13T17:05:35.677Z,5.05
2022-10-13T17:08:03.028Z,6.65
2022-10-13T17:10:31.702Z,5.57
2022-10-13T17:12:59.177Z,6.00
2022-10-13T17:15:26.616Z,5.20
2022-10-13T17:17:54.359Z,5.60
2022-10-13T17:20:21.708Z,5.63
2022-10-13T17:22:49.328Z,5.45
2022-10-13T17:25:17.042Z,6.20
2022-10-13T17:27:45.790Z,6.53
2022-10-13T17:30:13.167Z,5.47
2022-10-13T17:32:40.506Z,5.43
2022-10-13T17:35:10.744Z,6.57
2022-10-13T17:37:38.133Z,7.80
2022-10-13T17:40:05.913Z,5.63
2022-10-13T17:42:34.168Z,6.22
2022-10-13T17:45:02.961Z,7.40
2022-10-13T17:47:30.303Z,5.72
2022-10-13T17:49:57.664Z,6.72
2022-10-13T17:52:25.670Z,6.57
2022-10-13T17:54:53.245Z,5.88
2022-10-13T17:57:21.188Z,5.65
2022-10-13T17:59:48.705Z,5.78
2022-10-13T18:02:18.844Z,6.15
2022-10-13T18:04:46.329Z,5.90
2022-10-13T18:07:13.671Z,5.80
2022-10-13T18:09:41.135Z,5.82
2022-10-13T18:12:08.724Z,7.43
2022-10-13T18:14:36.132Z,6.78
2022-10-13T18:17:03.456Z,5.20
2022-10-13T18:19:35.412Z,6.55
2022-10-13T18:22:05.260Z,8.30
2022-10-13T18:24:32.620Z,5.28
2022-10-13T18:26:59.962Z,7.28
2022-10-13T18:29:27.346Z,6.60
2022-10-13T18:31:56.118Z,6.03
2022-10-13T18:34:23.627Z,5.97
2022-10-13T18:36:54.931Z,7.25
2022-10-13T18:39:24.672Z,6.22
2022-10-13T18:41:52.719Z,7.50
2022-10-13T18:44:20.912Z,7.95
2022-10-13T18:46:49.812Z,7.68
2022-10-13T18:49:18.954Z,7.38
2022-10-13T18:51:46.616Z,8.85
2022-10-13T18:54:15.293Z,8.40
2022-10-13T18:56:42.639Z,10.38
2022-10-13T18:59:11.547Z,10.32
2022-10-13T19:01:40.716Z,10.93
2022-10-13T19:04:08.572Z,8.20
2022-10-13T19:06:35.928Z,9.00
2022-10-13T19:09:04.537Z,9.30
2022-10-13T19:11:33.698Z,7.97
2022-10-13T19:14:01.533Z,9.30
2022-10-13T19:16:29.886Z,9.40
2022-10-13T19:18:57.348Z,9.97
2022-10-13T19:21:24.734Z,10.73
2022-10-13T19:23:52.292Z,9.07
2022-10-13T19:26:20.908Z,11.82
2022-10-13T19:28:50.332Z,11.68
2022-10-13T19:31:18.927Z,9.20
2022-10-13T19:33:47.144Z,11.15
2022-10-13T19:36:22.077Z,11.38
2022-10-13T19:38:49.763Z,11.30
2022-10-13T19:41:17.327Z,12.18
2022-10-13T19:43:44.739Z,11.07
2022-10-13T19:46:13.504Z,10.60
2022-10-13T19:48:40.995Z,11.25
2022-10-13T19:51:09.125Z,9.45
2022-10-13T19:53:36.864Z,10.63
2022-10-13T19:56:04.377Z,9.07
2022-10-13T19:58:31.814Z,8.57
2022-10-13T20:01:02.516Z,9.98
2022-10-13T20:03:31.395Z,10.02
2022-10-13T20:05:58.758Z,9.75
2022-10-13T20:08:26.509Z,10.20
2022-10-13T20:10:53.875Z,11.20
2022-10-13T20:13:21.551Z,10.85
2022-10-13T20:15:48.933Z,9.38
2022-10-13T20:18:16.284Z,10.20
2022-10-13T20:20:44.993Z,10.37
2022-10-13T20:23:12.884Z,10.32
2022-10-13T20:25:40.277Z,9.65
2022-10-13T20:28:07.612Z,8.82
2022-10-13T20:30:34.995Z,9.82
2022-10-13T20:33:02.858Z,10.43
2022-10-13T20:35:30.558Z,9.90
2022-10-13T20:37:59.255Z,10.68
2022-10-13T20:40:26.672Z,10.15
2022-10-13T20:42:54.183Z,9.10
2022-10-13T20:45:22.591Z,10.30
2022-10-13T20:47:50.058Z,10.15
2022-10-13T20:50:17.510Z,10.05
2022-10-13T20:52:44.874Z,10.82
2022-10-13T20:55:13.591Z,11.57
2022-10-13T20:57:40.926Z,10.43
2022-10-13T21:00:08.910Z,10.38
2022-10-13T21:02:36.583Z,10.23
2022-10-13T21:05:04.007Z,13.85
2022-10-13T21:07:31.339Z,14.18
2022-10-13T21:09:58.709Z,12.20
2022-10-13T21:12:27.395Z,12.52
2022-10-13T21:14:54.734Z,14.02
2022-10-13T21:17:22.793Z,13.48
2022-10-13T21:19:50.432Z,13.40
2022-10-13T21:22:17.816Z,12.47
2022-10-13T21:24:45.152Z,13.20
2022-10-13T21:27:12.562Z,14.85
2022-10-13T21:29:41.272Z,14.30
2022-10-13T21:32:08.645Z,16.65
2022-10-13T21:34:36.318Z,14.13
2022-10-13T21:37:03.650Z,16.88
2022-10-13T21:39:31.364Z,14.70
2022-10-13T21:41:59.077Z,13.90
2022-10-13T21:44:27.461Z,15.75
2022-10-13T21:46:56.167Z,19.60
2022-10-13T21:49:23.490Z,17.55
2022-10-13T21:51:50.844Z,17.58
2022-10-13T21:54:18.197Z,18.00
2022-10-13T21:56:45.550Z,16.17
2022-10-13T21:59:13.440Z,17.20
2022-10-13T22:01:41.111Z,16.63
2022-10-13T22:04:10.554Z,16.42
2022-10-13T22:06:37.935Z,16.67
2022-10-13T22:09:05.859Z,17.75
2022-10-13T22:11:34.718Z,16.17
2022-10-13T22:14:02.080Z,17.10
2022-10-13T22:16:34.487Z,17.10
2022-10-13T22:19:02.124Z,16.52
2022-10-13T22:21:31.664Z,16.52
2022-10-13T22:23:59.684Z,15.73
2022-10-13T22:26:27.630Z,16.50
2022-10-13T22:28:55.116Z,16.92
2022-10-13T22:31:22.532Z,16.98
2022-10-13T22:33:53.369Z,17.15
2022-10-13T22:36:21.633Z,15.93
2022-10-13T22:38:51.003Z,16.40
2022-10-13T22:41:19.675Z,15.20
2022-10-13T22:43:49.844Z,18.38
2022-10-13T22:46:18.918Z,16.48
2022-10-13T22:48:46.334Z,18.70
2022-10-13T22:51:15.137Z,18.60
2022-10-13T22:53:42.583Z,16.40
2022-10-13T22:56:13.406Z,19.73
2022-10-13T22:58:41.072Z,19.98
2022-10-13T23:01:09.072Z,19.43
2022-10-13T23:03:36.449Z,18.38
2022-10-13T23:06:04.040Z,23.05
2022-10-13T23:08:31.679Z,20.05
2022-10-13T23:10:59.021Z,19.77
2022-10-13T23:13:27.819Z,22.20
2022-10-13T23:15:55.190Z,21.40
2022-10-13T23:18:22.516Z,21.90
2022-10-13T23:20:53.144Z,20.90
2022-10-13T23:23:23.936Z,22.77
2022-10-13T23:25:51.285Z,19.87
2022-10-13T23:28:18.711Z,20.83
2022-10-13T23:30:47.413Z,19.25
2022-10-13T23:33:14.742Z,22.08
2022-10-13T23:35:42.390Z,22.05
2022-10-13T23:38:10.063Z,19.13
2022-10-13T23:40:37.408Z,20.08
2022-10-13T23:43:04.723Z,19.25
2022-10-13T23:45:32.427Z,21.05
2022-10-13T23:48:01.105Z,20.08
2022-10-13T23:50:28.439Z,20.70
2022-10-13T23:52:56.227Z,20.33
2022-10-13T23:55:23.561Z,21.23
2022-10-13T23:57:50.969Z,22.13
